Bordeaux, Wyoming
Current Conditions -  °F | °C
As of 6:15 PM on Friday 28 Nov 2014 (Local Time) from KGUR Reporting Station
Clear Clear  
Wind Chill: 16°   Ceiling: Unl
Heat Index: 16°   Visibility: 10mi
Dew Point: -7°   Wind: 8mph
Humidity: 20%   Direction: 290°WNW
Pressure: 29.72"   Gusts: NA
Location:  42.0178°N, 105.098°W
Report Text: KGUR 290115Z AUTO 29007KT 260V320 10SM CLR 17/M07 A2972 RMK AO2 T01651070
Loading
Personal Weather Stations






























Interactive Weather Map New forecast layout! Learn more

10-Day Weather Forecast

Advertisements
Track Severe Weather on mobile